map of IFJ home
IFJ - Airport
Location
City:  safjrur, Iceland
Near (Alt.):Isafjordur
ICAO:BIIS
IATA:IFJ

Details
Type:Airport (Aerodrome, Airfield)
Latitude:6603'29"N (66.058056)
Longitude:2308'07"W (-23.135277)
Elevation:8 ft (2 m)
Variation:15.01W (WMM2015 magnetic declination)
0.29 annual change
Runways:1
Longest:4593 × 98 ft (1400 × 30 m), paved

Time
Time Zone:UTC+0
Local Time:

Weather
METAR:BIIS 191700Z 23007KT 9999 FEW030 10/03 Q1025

Related Locations
Nearby:
Farthest:NZTB: 11810 mi / 19006 km
Terra Nova Bay [Mario Zucchelli Station], AQ

Find:

   beyond  
but within

Other Information
Maps:
NOTAMs:
Links:
Sources:

  
  • flag of Iceland
  

Sectional Chart

Flight Planning
at skyvector.com

Satellite Image

Google Maps Satellite view

 

Copyright © 2004-2018 Karl L. Swartz. All rights reserved.
The Great Circle Mapper name and logo are trademarks of the Great Circle Mapper.
All other trademarks mentioned herein belong to their respective owners.
Please see credits for attibutions and further copyright information.

  Follow gcmap on Facebook Follow gcmap on Twitter Follow gcmap on Google+ GCmap on LinkedIn

hCard Microformat

Geo Microformat